Time;durP1;ratioP1;P1;durP2;ratioP2;P2;SDS_P1;SDS_P2;PMS_P1;PMS_P2;Temp;Humidity;BMP_temperature;BMP_pressure;BME280_temperature;BME280_humidity;BME280_pressure;Samples;Min_cycle;Max_cycle;Signal;HPM_P1;HPM_P2
2022/11/08 00:04:05;;;;;;;8.57;2.83;;;12.90;99.90;;;;;;5103611;28;20051;-79
2022/11/08 00:14:45;;;;;;;9.02;2.80;;;12.80;99.90;;;;;;5117172;28;20055;-78
2022/11/08 00:17:13;;;;;;;8.60;3.00;;;12.80;99.90;;;;;;5116771;28;20050;-78
2022/11/08 00:19:39;;;;;;;9.60;2.75;;;12.90;99.90;;;;;;5116858;28;20445;-79
2022/11/08 00:22:05;;;;;;;11.05;3.08;;;12.80;99.90;;;;;;5116827;28;20044;-78
2022/11/08 00:24:31;;;;;;;8.25;3.13;;;12.80;99.90;;;;;;5117128;28;20046;-78
2022/11/08 00:26:56;;;;;;;13.95;3.03;;;12.80;99.90;;;;;;5116699;28;20047;-79
2022/11/08 00:29:22;;;;;;;8.90;3.35;;;12.80;99.90;;;;;;5116541;28;20048;-78
2022/11/08 00:31:48;;;;;;;9.98;2.63;;;12.80;99.90;;;;;;5116791;28;20118;-79
2022/11/08 00:34:13;;;;;;;7.13;2.92;;;12.70;99.90;;;;;;5116575;28;20039;-78
2022/11/08 00:36:39;;;;;;;11.52;3.25;;;12.70;99.90;;;;;;5116703;28;20061;-79
2022/11/08 00:39:04;;;;;;;10.25;3.30;;;12.70;99.90;;;;;;5116335;28;20106;-79
2022/11/08 00:41:30;;;;;;;12.70;3.03;;;12.70;99.90;;;;;;5115744;28;20133;-79
2022/11/08 00:43:56;;;;;;;11.40;3.13;;;12.70;99.90;;;;;;5116422;28;20039;-78
2022/11/08 00:46:22;;;;;;;12.15;3.38;;;12.60;99.90;;;;;;5116563;28;20046;-79
2022/11/08 00:48:47;;;;;;;12.95;3.20;;;12.60;99.90;;;;;;5116236;28;20174;-79
2022/11/08 00:51:13;;;;;;;12.52;2.72;;;12.50;99.90;;;;;;5116173;28;20551;-79
2022/11/08 00:53:39;;;;;;;11.88;2.78;;;12.50;99.90;;;;;;5115735;28;20044;-79
2022/11/08 00:56:07;;;;;;;14.07;2.88;;;12.50;99.90;;;;;;5114945;28;20054;-79
2022/11/08 00:58:33;;;;;;;9.40;3.25;;;12.40;99.90;;;;;;5115926;28;20079;-78
2022/11/08 01:00:58;;;;;;;12.75;3.30;;;12.40;99.90;;;;;;5115921;28;20128;-79
2022/11/08 01:03:25;;;;;;;11.23;3.55;;;12.40;99.90;;;;;;5116056;28;20043;-79
2022/11/08 01:05:53;;;;;;;10.55;3.20;;;12.40;99.90;;;;;;5115998;28;20051;-79
2022/11/08 01:08:21;;;;;;;11.27;3.28;;;12.30;99.90;;;;;;5115914;28;20048;-79
2022/11/08 01:10:51;;;;;;;12.52;3.42;;;12.30;99.90;;;;;;5115798;28;20414;-78
2022/11/08 01:13:17;;;;;;;9.32;3.08;;;12.30;99.90;;;;;;5116147;28;20039;-79
2022/11/08 01:15:44;;;;;;;11.45;3.17;;;12.20;99.90;;;;;;5116106;28;20449;-79
2022/11/08 01:18:12;;;;;;;7.78;2.80;;;12.20;99.90;;;;;;5114613;28;20101;-79
2022/11/08 01:20:42;;;;;;;6.35;2.97;;;12.10;99.90;;;;;;5115445;28;20089;-78
2022/11/08 01:23:09;;;;;;;8.00;3.20;;;12.10;99.90;;;;;;5115029;28;20378;-78
2022/11/08 01:25:36;;;;;;;;;;;12.00;99.90;;;;;;5115889;28;20040;-78
2022/11/08 01:28:02;;;;;;;8.25;2.83;;;12.00;99.90;;;;;;5115424;28;19927;-79
2022/11/08 01:30:27;;;;;;;15.13;3.40;;;12.10;99.90;;;;;;5115742;28;20052;-79
2022/11/08 01:32:53;;;;;;;12.43;2.95;;;11.90;99.90;;;;;;5115331;28;20448;-79
2022/11/08 01:35:18;;;;;;;8.95;3.20;;;11.70;99.90;;;;;;5115209;28;20044;-78
2022/11/08 01:37:44;;;;;;;8.10;2.78;;;11.80;99.90;;;;;;5115243;28;20479;-79
2022/11/08 01:40:10;;;;;;;16.60;4.18;;;12.50;99.90;;;;;;5115190;28;20040;-79
2022/11/08 01:42:35;;;;;;;10.37;2.63;;;11.80;99.90;;;;;;5115228;28;20471;-79
2022/11/08 01:45:07;;;;;;;8.10;2.60;;;11.80;99.90;;;;;;5115211;28;20050;-78
2022/11/08 01:47:33;;;;;;;9.32;2.92;;;11.80;99.90;;;;;;5114033;28;20141;-79
2022/11/08 01:50:04;;;;;;;11.30;2.67;;;11.80;99.90;;;;;;5114953;28;20039;-79
2022/11/08 01:52:36;;;;;;;7.43;2.60;;;11.80;99.90;;;;;;5115549;28;20047;-79
2022/11/08 01:55:04;;;;;;;7.97;2.72;;;11.90;99.90;;;;;;5115360;28;20079;-79
2022/11/08 01:57:54;;;;;;;11.32;2.95;;;11.80;99.90;;;;;;5114894;28;20049;-78
2022/11/08 02:00:20;;;;;;;10.68;3.03;;;11.80;99.90;;;;;;5114604;28;20039;-79
2022/11/08 02:02:59;;;;;;;9.27;3.40;;;11.80;99.90;;;;;;5113616;28;20047;-79
2022/11/08 02:05:26;;;;;;;8.50;2.88;;;11.80;99.90;;;;;;5114854;28;20326;-78
2022/11/08 02:07:57;;;;;;;11.90;3.08;;;11.80;99.90;;;;;;5114746;28;20433;-78
2022/11/08 02:10:28;;;;;;;11.88;2.88;;;11.90;99.90;;;;;;5114608;28;20432;-79
2022/11/08 02:12:54;;;;;;;10.93;3.08;;;11.90;99.90;;;;;;5113561;28;20120;-79
2022/11/08 02:15:22;;;;;;;10.82;2.78;;;11.90;99.90;;;;;;5114801;28;20387;-79
2022/11/08 02:17:47;;;;;;;16.42;3.15;;;12.00;99.90;;;;;;5113554;28;20080;-79
2022/11/08 02:20:13;;;;;;;7.25;2.33;;;12.00;99.90;;;;;;5114782;28;20636;-78
2022/11/08 02:22:46;;;;;;;7.68;3.03;;;12.00;99.90;;;;;;5113922;28;20074;-79
2022/11/08 02:25:12;;;;;;;6.97;2.55;;;12.00;99.90;;;;;;5114505;28;20047;-79
2022/11/08 02:27:37;;;;;;;10.15;2.67;;;12.00;99.90;;;;;;5114191;28;20047;-79
2022/11/08 02:30:03;;;;;;;8.80;2.42;;;11.90;99.90;;;;;;5114593;28;20075;-79
2022/11/08 02:32:39;;;;;;;6.35;2.70;;;11.90;99.90;;;;;;5114307;28;20459;-79
2022/11/08 02:35:15;;;;;;;8.25;2.58;;;12.00;99.90;;;;;;5114177;28;20491;-79
2022/11/08 02:37:41;;;;;;;6.03;2.55;;;11.80;99.90;;;;;;5114601;28;20559;-78
2022/11/08 02:40:08;;;;;;;9.60;2.70;;;11.80;99.90;;;;;;5114239;28;20047;-78
2022/11/08 02:42:37;;;;;;;6.38;2.25;;;11.80;99.90;;;;;;5114955;28;20364;-79
2022/11/08 02:45:05;;;;;;;8.82;3.00;;;11.90;99.90;;;;;;5114220;28;20126;-78
2022/11/08 02:47:30;;;;;;;12.75;3.25;;;11.70;99.90;;;;;;5114111;28;20487;-79
2022/11/08 02:49:56;;;;;;;8.10;2.53;;;11.70;99.90;;;;;;5114255;28;20058;-78
2022/11/08 02:52:22;;;;;;;8.93;2.42;;;11.70;99.90;;;;;;5114191;28;20036;-79
2022/11/08 02:54:47;;;;;;;9.18;2.90;;;11.60;99.90;;;;;;5114212;28;20361;-78
2022/11/08 02:57:13;;;;;;;11.75;4.00;;;11.60;99.90;;;;;;5114155;28;20120;-79
2022/11/08 02:59:38;;;;;;;12.45;2.67;;;11.60;99.90;;;;;;5114116;28;20114;-79
2022/11/08 03:02:04;;;;;;;7.78;2.70;;;11.40;99.90;;;;;;5114539;28;20039;-79
2022/11/08 03:04:29;;;;;;;8.13;2.50;;;12.00;99.90;;;;;;5114080;28;20046;-79
2022/11/08 03:06:55;;;;;;;7.82;2.65;;;11.30;99.90;;;;;;5114078;28;20044;-79
2022/11/08 03:09:21;;;;;;;14.45;3.42;;;11.50;99.90;;;;;;5114015;28;20047;-79
2022/11/08 03:11:46;;;;;;;6.90;2.53;;;11.50;99.90;;;;;;5114634;28;20491;-79
2022/11/08 03:14:12;;;;;;;7.05;2.90;;;11.50;99.90;;;;;;5114037;28;20035;-79
2022/11/08 03:16:37;;;;;;;9.77;2.67;;;11.40;99.90;;;;;;5096049;28;20196;-78
2022/11/08 03:19:03;;;;;;;8.25;2.47;;;11.40;99.90;;;;;;5114247;28;20079;-78
2022/11/08 03:21:29;;;;;;;7.82;2.83;;;11.40;99.90;;;;;;5112731;28;20386;-78
2022/11/08 03:23:55;;;;;;;8.80;3.00;;;11.40;99.90;;;;;;5113959;28;20040;-78
2022/11/08 03:26:20;;;;;;;10.07;3.30;;;11.70;99.90;;;;;;5113921;28;20047;-78
2022/11/08 03:28:46;;;;;;;8.25;2.63;;;11.80;99.90;;;;;;5113556;28;20426;-78
2022/11/08 03:31:12;;;;;;;7.68;2.58;;;11.30;99.90;;;;;;5114211;28;20053;-78
2022/11/08 03:33:37;;;;;;;12.27;2.55;;;11.30;99.90;;;;;;5116610;28;20079;-79
2022/11/08 03:36:04;;;;;;;9.25;2.80;;;11.30;99.90;;;;;;5117585;28;20497;-79
2022/11/08 03:38:29;;;;;;;10.10;2.90;;;11.30;99.90;;;;;;5116693;28;20039;-79
2022/11/08 03:40:55;;;;;;;9.00;2.95;;;11.70;99.90;;;;;;5117427;28;20044;-79
2022/11/08 03:43:20;;;;;;;6.72;2.35;;;11.30;99.90;;;;;;5117376;28;20086;-78
2022/11/08 03:45:46;;;;;;;8.38;2.92;;;11.30;99.90;;;;;;5117777;28;20048;-79
2022/11/08 03:48:11;;;;;;;8.63;2.72;;;11.70;99.90;;;;;;5117332;28;20395;-79
2022/11/08 03:50:37;;;;;;;4.43;2.28;;;11.30;99.90;;;;;;5117347;28;20039;-78
2022/11/08 03:53:03;;;;;;;11.30;2.80;;;11.30;99.90;;;;;;5117286;28;20072;-79
2022/11/08 03:55:28;;;;;;;7.25;2.83;;;11.30;99.90;;;;;;5116976;28;20459;-78
2022/11/08 03:57:54;;;;;;;11.23;2.72;;;11.20;99.90;;;;;;5117240;28;20123;-79
2022/11/08 04:00:23;;;;;;;9.32;3.28;;;11.20;99.90;;;;;;5117012;28;20088;-79
2022/11/08 04:02:49;;;;;;;8.13;2.80;;;11.30;99.90;;;;;;5117082;28;20036;-78
2022/11/08 04:05:15;;;;;;;9.65;2.75;;;11.20;99.90;;;;;;5117147;28;20084;-78
2022/11/08 04:07:41;;;;;;;7.30;2.90;;;11.20;99.90;;;;;;5117057;28;20039;-79
2022/11/08 04:10:08;;;;;;;5.90;2.20;;;11.80;99.90;;;;;;5117020;28;20376;-79
2022/11/08 04:15:22;;;;;;;;;;;11.20;99.90;;;;;;5117348;27;20048;-79
2022/11/08 04:23:30;;;;;;;9.68;2.92;;;11.20;99.90;;;;;;5116770;28;20134;-78
2022/11/08 04:26:01;;;;;;;11.80;2.63;;;11.20;99.90;;;;;;5116899;28;20043;-78
2022/11/08 04:28:29;;;;;;;10.45;2.63;;;11.20;99.90;;;;;;5116413;28;20048;-79
2022/11/08 04:31:04;;;;;;;10.40;2.80;;;11.20;99.90;;;;;;5116462;28;20550;-77
2022/11/08 04:33:30;;;;;;;7.90;2.50;;;11.20;99.90;;;;;;5116888;28;20164;-79
2022/11/08 04:36:01;;;;;;;8.52;2.90;;;11.20;99.90;;;;;;5116431;28;20388;-78
2022/11/08 04:38:28;;;;;;;8.45;2.80;;;11.10;99.90;;;;;;5115527;28;20044;-78
2022/11/08 04:41:01;;;;;;;5.25;2.53;;;11.20;99.90;;;;;;5116282;28;20096;-77
2022/11/08 04:43:28;;;;;;;9.52;3.03;;;11.10;99.90;;;;;;5116128;28;20050;-78
2022/11/08 04:46:02;;;;;;;9.30;3.00;;;11.00;99.90;;;;;;5115043;28;20101;-78
2022/11/08 04:48:28;;;;;;;9.27;2.97;;;11.00;99.90;;;;;;5116271;28;20040;-79
2022/11/08 04:50:53;;;;;;;9.18;2.60;;;11.00;99.90;;;;;;5116355;28;20481;-79
2022/11/08 04:53:19;;;;;;;8.60;2.58;;;10.90;99.90;;;;;;5116604;28;20035;-78
2022/11/08 04:55:45;;;;;;;8.65;2.83;;;11.20;99.90;;;;;;5115411;28;20116;-78
2022/11/08 04:58:10;;;;;;;4.20;2.63;;;10.90;99.90;;;;;;5116017;28;20126;-78
2022/11/08 05:00:36;;;;;;;4.43;2.50;;;10.80;99.90;;;;;;5115997;28;20039;-78
2022/11/08 05:03:01;;;;;;;8.27;2.85;;;10.80;99.90;;;;;;5115777;28;20040;-78
2022/11/08 05:05:27;;;;;;;11.23;2.78;;;11.30;99.90;;;;;;5116246;28;20088;-79
2022/11/08 05:07:53;;;;;;;8.00;2.85;;;10.70;99.90;;;;;;5114796;28;20039;-78
2022/11/08 05:10:19;;;;;;;7.00;2.83;;;10.80;99.90;;;;;;5115959;28;20044;-79
2022/11/08 05:12:45;;;;;;;8.50;2.70;;;10.80;99.90;;;;;;5115677;28;20126;-79
2022/11/08 05:15:11;;;;;;;8.88;2.80;;;11.30;99.90;;;;;;5115841;28;20075;-78
2022/11/08 05:17:36;;;;;;;9.43;2.80;;;10.80;99.90;;;;;;5115641;28;20087;-78
2022/11/08 05:25:32;;;;;;;6.57;2.90;;;10.70;99.90;;;;;;5115730;28;20048;-78
2022/11/08 05:27:57;;;;;;;10.27;3.08;;;10.70;99.90;;;;;;5115913;28;20046;-78
2022/11/08 05:30:23;;;;;;;9.57;3.25;;;10.70;99.90;;;;;;5116156;28;20059;-79
2022/11/08 05:32:51;;;;;;;8.75;3.10;;;10.70;99.90;;;;;;5115418;28;20058;-78
2022/11/08 05:35:20;;;;;;;11.23;3.38;;;10.70;99.90;;;;;;5115243;28;20130;-79
2022/11/08 05:37:46;;;;;;;7.30;3.15;;;10.70;99.90;;;;;;5115242;28;20048;-79
2022/11/08 05:40:11;;;;;;;7.13;3.38;;;10.60;99.90;;;;;;5114859;28;20047;-78
2022/11/08 05:42:37;;;;;;;11.13;3.35;;;10.60;99.90;;;;;;5115181;28;20054;-79
2022/11/08 05:45:03;;;;;;;8.85;3.08;;;10.60;99.90;;;;;;5115159;28;20039;-78
2022/11/08 05:47:29;;;;;;;8.65;3.28;;;10.60;99.90;;;;;;5115153;28;20472;-78
2022/11/08 05:49:54;;;;;;;5.57;3.38;;;10.60;99.90;;;;;;5115143;28;20044;-79
2022/11/08 05:52:20;;;;;;;10.90;3.35;;;10.60;99.90;;;;;;5115033;28;20467;-79
2022/11/08 05:54:45;;;;;;;9.73;3.30;;;10.60;99.90;;;;;;5114917;28;20039;-78
2022/11/08 05:57:11;;;;;;;13.93;3.40;;;10.60;99.90;;;;;;5113993;28;20387;-78
2022/11/08 05:59:37;;;;;;;6.93;3.30;;;11.10;99.90;;;;;;5114890;28;20047;-79
2022/11/08 06:02:02;;;;;;;6.10;2.78;;;10.70;99.90;;;;;;5114709;28;20040;-78
2022/11/08 06:04:28;;;;;;;9.07;3.20;;;10.70;99.90;;;;;;5114843;28;20044;-78
2022/11/08 06:06:53;;;;;;;5.18;3.15;;;10.70;99.90;;;;;;5114635;28;20073;-78
2022/11/08 06:09:19;;;;;;;7.65;3.20;;;10.70;99.90;;;;;;5114724;28;20079;-78
2022/11/08 06:11:45;;;;;;;6.30;2.85;;;10.60;99.90;;;;;;5114853;28;20039;-78
2022/11/08 06:14:10;;;;;;;8.55;3.17;;;10.70;99.90;;;;;;5114631;28;20047;-80
2022/11/08 06:16:36;;;;;;;8.68;3.20;;;10.60;99.90;;;;;;5114140;28;20040;-78
2022/11/08 06:19:01;;;;;;;10.77;4.65;;;10.60;99.90;;;;;;5114796;28;20047;-78
2022/11/08 06:21:27;;;;;;;13.00;3.53;;;10.50;99.90;;;;;;5114707;28;20036;-78
2022/11/08 06:23:53;;;;;;;9.75;3.47;;;10.50;99.90;;;;;;5114381;28;20075;-78
2022/11/08 06:26:20;;;;;;;7.80;3.17;;;10.50;99.90;;;;;;5114459;28;20054;-76
2022/11/08 06:28:46;;;;;;;6.60;3.22;;;10.30;99.90;;;;;;5114722;28;20053;-78
2022/11/08 06:31:11;;;;;;;11.30;3.65;;;10.30;99.90;;;;;;5114452;28;20039;-77
2022/11/08 06:33:37;;;;;;;7.53;3.30;;;10.20;99.90;;;;;;5114257;28;20043;-78
2022/11/08 06:36:03;;;;;;;9.55;3.17;;;10.20;99.90;;;;;;5114099;28;20082;-78
2022/11/08 06:38:28;;;;;;;9.77;3.40;;;10.20;99.90;;;;;;5112704;28;20047;-80
2022/11/08 06:40:58;;;;;;;11.90;3.83;;;10.30;99.90;;;;;;5114238;28;20047;-78
2022/11/08 06:43:24;;;;;;;6.00;3.08;;;10.30;99.90;;;;;;5113277;28;20568;-79
2022/11/08 06:45:49;;;;;;;5.75;3.20;;;10.30;99.90;;;;;;5113652;28;20056;-81
2022/11/08 06:48:15;;;;;;;8.02;3.28;;;10.30;99.90;;;;;;5114272;28;20502;-78
2022/11/08 06:50:41;;;;;;;6.82;2.80;;;10.40;99.90;;;;;;5114319;28;20092;-78
2022/11/08 06:53:09;;;;;;;5.93;2.80;;;10.30;99.90;;;;;;5114079;28;20483;-78
2022/11/08 06:55:35;;;;;;;10.60;3.10;;;10.30;99.90;;;;;;5113952;28;20345;-79
2022/11/08 06:58:01;;;;;;;8.10;3.03;;;10.40;99.90;;;;;;5114061;28;20492;-78
2022/11/08 07:00:27;;;;;;;5.93;2.75;;;10.40;99.90;;;;;;5113963;28;20048;-79
2022/11/08 07:02:54;;;;;;;6.23;2.50;;;10.40;99.90;;;;;;5114124;28;20118;-81
2022/11/08 07:05:21;;;;;;;8.38;2.90;;;10.40;99.90;;;;;;5114034;28;20040;-77
2022/11/08 07:07:50;;;;;;;6.10;2.70;;;10.50;99.90;;;;;;5115526;28;20083;-80
2022/11/08 07:10:18;;;;;;;7.07;3.13;;;10.50;99.90;;;;;;5117970;28;20783;-77
2022/11/08 07:12:44;;;;;;;7.85;2.90;;;10.30;99.90;;;;;;5118080;28;20050;-78
2022/11/08 07:15:10;;;;;;;10.73;2.85;;;10.70;99.90;;;;;;5118008;28;20127;-79
2022/11/08 07:17:35;;;;;;;5.32;2.63;;;10.60;99.90;;;;;;5117657;28;20130;-79
2022/11/08 07:20:01;;;;;;;5.63;2.63;;;10.60;99.90;;;;;;5117970;28;20052;-77
2022/11/08 07:22:26;;;;;;;5.47;2.70;;;10.70;99.90;;;;;;5118033;28;20049;-78
2022/11/08 07:24:52;;;;;;;6.50;2.88;;;10.70;99.90;;;;;;5117959;28;20437;-78
2022/11/08 07:27:17;;;;;;;9.07;2.78;;;10.60;99.90;;;;;;5118571;28;20036;-78
2022/11/08 07:29:43;;;;;;;8.85;2.85;;;10.70;99.90;;;;;;5118213;28;20491;-79
2022/11/08 07:32:09;;;;;;;11.05;2.90;;;10.70;99.90;;;;;;5118208;28;20100;-79
2022/11/08 07:34:35;;;;;;;6.43;2.40;;;10.70;99.90;;;;;;5117804;28;20086;-78
2022/11/08 07:37:00;;;;;;;7.50;2.90;;;10.70;99.90;;;;;;5117896;28;20123;-78
2022/11/08 07:39:26;;;;;;;7.68;2.55;;;10.60;99.90;;;;;;5118162;28;20086;-74
2022/11/08 07:41:52;;;;;;;6.78;2.42;;;10.70;99.90;;;;;;5117574;28;20040;-81
2022/11/08 07:44:17;;;;;;;6.75;2.88;;;10.80;99.90;;;;;;5099825;28;20097;-78
2022/11/08 07:46:43;;;;;;;7.40;2.58;;;10.70;99.90;;;;;;5117728;28;20058;-77
2022/11/08 07:49:08;;;;;;;5.25;2.38;;;10.70;99.90;;;;;;5117449;28;20047;-80
2022/11/08 07:51:34;;;;;;;5.20;2.50;;;10.70;99.90;;;;;;5117280;28;20055;-78
2022/11/08 07:54:00;;;;;;;5.80;2.63;;;10.70;99.90;;;;;;5116848;28;20043;-78
2022/11/08 07:56:25;;;;;;;5.32;2.60;;;10.80;99.90;;;;;;5117802;28;20047;-77
2022/11/08 07:58:52;;;;;;;5.45;2.53;;;11.40;99.90;;;;;;5117251;28;20472;-77
2022/11/08 08:01:17;;;;;;;3.90;2.15;;;10.70;99.90;;;;;;5117147;28;20044;-79
2022/11/08 08:03:43;;;;;;;7.22;2.53;;;10.80;99.90;;;;;;5117184;28;20441;-78
2022/11/08 08:06:09;;;;;;;4.05;2.20;;;10.90;99.90;;;;;;5117030;28;20036;-79
2022/11/08 08:08:34;;;;;;;7.65;2.45;;;10.90;99.90;;;;;;5117271;28;20464;-78
2022/11/08 08:11:01;;;;;;;7.10;3.05;;;11.00;99.90;;;;;;5117073;28;20039;-78
2022/11/08 08:13:27;;;;;;;7.32;2.35;;;11.00;99.90;;;;;;5116981;28;20116;-78
2022/11/08 08:15:55;;;;;;;6.82;2.92;;;11.10;99.90;;;;;;5117019;28;20126;-78
2022/11/08 08:18:21;;;;;;;5.25;2.33;;;11.10;99.90;;;;;;5116495;28;20046;-78
2022/11/08 08:20:46;;;;;;;5.22;2.30;;;11.20;99.90;;;;;;5116139;28;20051;-78
2022/11/08 08:23:12;;;;;;;4.50;2.83;;;11.30;99.90;;;;;;5116373;28;20043;-78
2022/11/08 08:25:37;;;;;;;7.90;2.92;;;11.30;99.90;;;;;;5116795;28;20050;-77
2022/11/08 08:28:04;;;;;;;5.85;2.65;;;11.90;99.90;;;;;;5116676;28;20039;-78
2022/11/08 08:30:31;;;;;;;7.13;2.60;;;11.50;99.90;;;;;;5116854;28;20058;-78
2022/11/08 08:33:09;;;;;;;8.10;2.65;;;12.00;99.90;;;;;;5116681;28;20082;-79
2022/11/08 08:35:36;;;;;;;5.28;2.17;;;11.60;99.90;;;;;;5116287;28;20380;-79
2022/11/08 08:38:03;;;;;;;6.60;2.35;;;11.70;99.90;;;;;;5116933;28;20046;-77
2022/11/08 08:40:30;;;;;;;4.38;2.35;;;11.80;99.90;;;;;;5116314;28;20151;-77
2022/11/08 08:43:02;;;;;;;3.88;2.30;;;11.90;99.90;;;;;;5116418;28;20475;-77
2022/11/08 08:45:28;;;;;;;4.32;2.42;;;11.90;99.90;;;;;;5116378;28;20071;-77
2022/11/08 08:47:55;;;;;;;3.85;2.22;;;12.00;99.90;;;;;;5116289;28;20086;-76
2022/11/08 08:50:21;;;;;;;;;;;12.00;99.90;;;;;;5116477;28;20489;-78
2022/11/08 08:52:46;;;;;;;3.55;2.00;;;12.00;99.90;;;;;;5115971;27;19978;-78
2022/11/08 08:55:13;;;;;;;4.40;2.10;;;12.20;99.90;;;;;;5128681;27;20035;-77
2022/11/08 08:57:46;;;;;;;5.80;2.40;;;12.10;99.90;;;;;;5136317;27;20501;-76
2022/11/08 09:00:13;;;;;;;5.88;2.45;;;12.00;99.90;;;;;;5136608;27;20039;-77
2022/11/08 09:02:39;;;;;;;6.10;2.20;;;12.20;99.90;;;;;;5136590;27;20039;-77
2022/11/08 09:05:05;;;;;;;3.42;1.88;;;12.20;99.90;;;;;;5136843;27;20071;-82
2022/11/08 09:07:30;;;;;;;3.83;1.90;;;12.30;99.90;;;;;;5136697;27;20042;-77
2022/11/08 09:09:56;;;;;;;4.68;1.85;;;12.30;99.90;;;;;;5136219;27;20483;-77
2022/11/08 09:12:22;;;;;;;5.68;2.20;;;12.20;99.90;;;;;;5136324;27;20065;-75
2022/11/08 09:14:47;;;;;;;5.88;2.03;;;12.50;99.90;;;;;;5136209;27;20042;-76
2022/11/08 09:17:13;;;;;;;4.07;2.30;;;12.60;99.90;;;;;;5136210;27;20051;-76
2022/11/08 09:19:38;;;;;;;6.70;1.80;;;12.50;99.90;;;;;;5136136;27;20050;-77
2022/11/08 09:22:04;;;;;;;3.97;2.03;;;12.80;99.90;;;;;;5136175;27;20039;-77
2022/11/08 09:24:32;;;;;;;4.20;2.13;;;12.80;99.90;;;;;;5136199;27;20088;-77
2022/11/08 09:26:57;;;;;;;3.33;2.00;;;12.90;99.90;;;;;;5136087;27;20043;-77
2022/11/08 09:29:23;;;;;;;5.60;1.80;;;13.50;99.90;;;;;;5135899;27;20062;-77
2022/11/08 09:31:48;;;;;;;6.15;2.00;;;13.00;99.90;;;;;;5135845;27;20106;-80
2022/11/08 09:34:14;;;;;;;5.25;1.88;;;13.10;99.90;;;;;;5135877;27;20043;-78
2022/11/08 09:36:39;;;;;;;3.58;1.83;;;13.30;99.90;;;;;;5136461;27;20042;-78
2022/11/08 09:39:05;;;;;;;5.65;1.67;;;13.20;99.90;;;;;;5135919;27;20098;-78
2022/11/08 09:42:13;;;;;;;5.72;1.80;;;13.20;99.90;;;;;;5135624;27;20039;-77
2022/11/08 09:44:56;;;;;;;3.15;1.88;;;13.30;99.90;;;;;;5135673;27;20039;-71
2022/11/08 09:47:25;;;;;;;3.45;2.00;;;13.40;99.90;;;;;;5135857;27;20058;-78
2022/11/08 09:50:28;;;;;;;4.65;1.88;;;13.50;99.90;;;;;;5135632;27;20121;-78
2022/11/08 09:53:25;;;;;;;4.55;1.80;;;13.60;99.90;;;;;;5135490;27;20099;-77
2022/11/08 09:56:00;;;;;;;5.07;1.88;;;13.70;99.90;;;;;;5124412;27;20047;-76
2022/11/08 09:58:36;;;;;;;2.85;1.70;;;13.80;99.90;;;;;;5135563;27;20043;-75
2022/11/08 10:01:03;;;;;;;5.32;2.13;;;13.80;99.90;;;;;;5135444;27;20091;-75
2022/11/08 10:03:29;;;;;;;2.83;1.80;;;13.90;99.90;;;;;;5135096;27;20479;-75
2022/11/08 10:05:57;;;;;;;7.13;1.95;;;13.90;99.90;;;;;;5135423;27;20047;-75
2022/11/08 10:08:32;;;;;;;2.80;1.70;;;14.00;99.90;;;;;;5135296;27;20391;-75
2022/11/08 10:11:09;;;;;;;8.23;2.85;;;14.00;99.90;;;;;;5135249;27;20042;-74
2022/11/08 10:13:59;;;;;;;3.33;1.83;;;14.10;99.90;;;;;;5135263;27;20043;-75
2022/11/08 10:16:25;;;;;;;3.92;1.80;;;14.10;99.90;;;;;;5135188;27;20047;-74
2022/11/08 10:19:05;;;;;;;4.60;1.97;;;14.10;99.90;;;;;;5135122;27;20046;-74
2022/11/08 10:21:42;;;;;;;4.75;1.63;;;14.20;99.90;;;;;;5135291;27;20130;-79
2022/11/08 10:24:16;;;;;;;4.80;1.70;;;14.20;99.90;;;;;;5134342;27;20398;-79
2022/11/08 10:26:45;;;;;;;7.45;2.20;;;14.20;99.90;;;;;;5135053;27;20083;-72
2022/11/08 10:29:19;;;;;;;5.75;1.73;;;14.20;99.90;;;;;;5134584;27;20396;-72
2022/11/08 10:31:47;;;;;;;4.68;2.00;;;14.20;99.90;;;;;;5135260;27;20082;-71
2022/11/08 10:34:23;;;;;;;3.05;1.80;;;14.20;99.90;;;;;;5134898;27;20402;-72
2022/11/08 10:36:53;;;;;;;2.92;1.92;;;14.20;99.90;;;;;;5134804;27;20111;-78
2022/11/08 10:39:25;;;;;;;4.10;1.98;;;14.20;99.90;;;;;;5134845;27;20047;-77
2022/11/08 10:42:12;;;;;;;4.32;1.90;;;14.90;99.90;;;;;;5134277;27;20538;-77
2022/11/08 10:44:40;;;;;;;4.90;1.95;;;14.30;99.90;;;;;;5134729;27;20596;-72
2022/11/08 10:47:16;;;;;;;7.65;2.00;;;14.30;99.90;;;;;;5134463;27;20510;-79
2022/11/08 10:49:42;;;;;;;4.55;1.98;;;14.30;99.90;;;;;;5134878;27;20039;-79
2022/11/08 10:52:11;;;;;;;3.97;1.90;;;14.30;99.90;;;;;;5135263;28;20051;-77
2022/11/08 10:54:51;;;;;;;3.63;1.80;;;14.30;99.90;;;;;;5134225;28;20054;-79
2022/11/08 10:57:31;;;;;;;4.05;2.03;;;14.40;99.90;;;;;;5134881;27;20054;-79
2022/11/08 11:00:15;;;;;;;4.80;1.80;;;14.30;99.90;;;;;;5134544;28;20043;-75
2022/11/08 11:02:41;;;;;;;4.85;1.85;;;14.30;99.90;;;;;;5134683;28;20043;-74
2022/11/08 11:05:19;;;;;;;5.97;2.20;;;14.30;99.90;;;;;;5134554;27;20407;-74
2022/11/08 11:07:55;;;;;;;4.15;1.95;;;14.30;99.90;;;;;;5134562;28;20058;-76
2022/11/08 11:10:29;;;;;;;7.43;2.23;;;14.30;99.90;;;;;;5134515;27;20470;-71
2022/11/08 11:13:14;;;;;;;3.65;1.80;;;14.40;99.90;;;;;;5134478;28;20043;-72
2022/11/08 11:15:46;;;;;;;4.20;2.00;;;14.40;99.90;;;;;;5134444;28;20070;-72
2022/11/08 11:18:23;;;;;;;3.13;2.03;;;14.40;99.90;;;;;;5134688;27;20045;-78
2022/11/08 11:21:05;;;;;;;4.40;2.00;;;14.40;99.90;;;;;;5134271;28;20379;-78
2022/11/08 11:23:43;;;;;;;6.57;2.10;;;14.40;99.90;;;;;;5134841;27;20054;-78
2022/11/08 11:26:28;;;;;;;8.05;2.05;;;14.40;99.90;;;;;;5134307;27;20092;-77
2022/11/08 11:29:02;;;;;;;6.78;2.22;;;14.40;99.90;;;;;;5134517;27;20394;-81
2022/11/08 11:31:28;;;;;;;3.53;1.83;;;14.40;99.90;;;;;;5134974;28;20051;-78
2022/11/08 11:33:54;;;;;;;3.80;1.93;;;14.50;99.90;;;;;;5134316;27;20471;-78
2022/11/08 11:36:23;;;;;;;5.90;1.70;;;14.80;99.90;;;;;;5134358;27;20051;-79
2022/11/08 11:39:03;;;;;;;4.32;2.20;;;14.60;99.90;;;;;;5134190;27;20372;-78
2022/11/08 11:41:51;;;;;;;7.07;2.17;;;14.60;99.90;;;;;;5134144;27;20047;-78
2022/11/08 11:44:19;;;;;;;;;;;14.70;99.90;;;;;;5134057;28;20053;-77
2022/11/08 11:46:54;;;;;;;4.13;2.00;;;14.80;99.90;;;;;;5134234;27;19919;-77
2022/11/08 11:49:21;;;;;;;5.45;1.95;;;14.90;99.90;;;;;;5133431;28;20394;-77
2022/11/08 11:51:50;;;;;;;5.20;1.90;;;14.90;99.90;;;;;;5134142;27;20047;-78
2022/11/08 11:54:16;;;;;;;4.57;2.05;;;14.80;99.90;;;;;;5136248;27;20043;-77
2022/11/08 11:56:54;;;;;;;4.37;2.10;;;14.70;99.90;;;;;;5137803;27;20193;-78
2022/11/08 11:59:49;;;;;;;5.60;2.17;;;15.00;99.90;;;;;;5138300;27;20054;-76
2022/11/08 12:02:41;;;;;;;5.13;1.95;;;14.90;99.90;;;;;;5119715;27;20440;-79
2022/11/08 12:05:44;;;;;;;6.43;2.03;;;14.80;99.90;;;;;;5134151;27;20063;-77
2022/11/08 12:08:32;;;;;;;5.57;2.40;;;14.80;99.90;;;;;;5137706;27;20050;-82
2022/11/08 12:11:10;;;;;;;7.65;2.13;;;14.70;99.90;;;;;;5137535;27;20118;-80
2022/11/08 12:13:50;;;;;;;6.30;1.98;;;14.70;99.90;;;;;;5137165;27;20047;-80
2022/11/08 12:16:38;;;;;;;4.63;1.90;;;14.60;99.90;;;;;;5137764;27;20043;-80
2022/11/08 12:19:22;;;;;;;4.55;1.85;;;14.60;99.90;;;;;;5136245;27;20387;-82
2022/11/08 12:22:09;;;;;;;4.40;1.95;;;14.70;99.90;;;;;;5138048;27;20390;-80
2022/11/08 12:24:40;;;;;;;3.28;1.60;;;14.70;99.90;;;;;;5136804;27;20135;-81
2022/11/08 12:27:36;;;;;;;5.40;1.77;;;14.80;99.90;;;;;;5137282;27;20217;-75
2022/11/08 12:30:10;;;;;;;7.70;1.80;;;14.90;99.90;;;;;;5126953;27;20542;-81
2022/11/08 12:32:47;;;;;;;5.25;1.95;;;14.90;99.90;;;;;;5137526;27;20395;-74
2022/11/08 12:35:25;;;;;;;;;;;14.90;99.90;;;;;;5137834;27;20051;-77
2022/11/08 12:38:07;;;;;;;4.43;1.88;;;14.90;99.90;;;;;;5136853;27;20363;-79
2022/11/08 12:40:51;;;;;;;4.28;2.05;;;14.90;99.90;;;;;;5137421;27;20046;-74
2022/11/08 12:43:34;;;;;;;3.13;1.98;;;14.80;99.90;;;;;;5137163;27;20043;-76
2022/11/08 12:46:09;;;;;;;5.63;2.10;;;14.80;99.90;;;;;;5136718;27;20047;-77
2022/11/08 12:48:56;;;;;;;5.72;1.85;;;14.70;99.90;;;;;;5137209;27;20045;-79
2022/11/08 12:51:43;;;;;;;2.92;2.05;;;14.70;99.90;;;;;;5137446;27;20042;-80
2022/11/08 12:54:35;;;;;;;4.20;1.98;;;14.70;99.90;;;;;;5137101;27;20047;-79
2022/11/08 12:57:15;;;;;;;3.45;2.00;;;14.70;99.90;;;;;;5135943;27;20436;-74
2022/11/08 13:00:00;;;;;;;2.80;1.70;;;14.70;99.90;;;;;;5136450;27;20487;-80
2022/11/08 13:02:31;;;;;;;3.67;1.83;;;14.80;99.90;;;;;;5136564;27;20074;-75
2022/11/08 13:05:24;;;;;;;3.70;2.00;;;14.90;99.90;;;;;;5136020;27;20043;-73
2022/11/08 13:08:16;;;;;;;5.80;1.92;;;15.00;99.90;;;;;;5136372;27;20166;-73
2022/11/08 13:11:04;;;;;;;3.75;1.85;;;15.10;99.90;;;;;;5137106;27;20043;-70
2022/11/08 13:13:44;;;;;;;4.45;2.00;;;15.20;99.90;;;;;;5136346;27;20053;-72
2022/11/08 13:16:22;;;;;;;4.60;2.22;;;15.30;99.90;;;;;;5136340;27;20083;-71
2022/11/08 13:18:53;;;;;;;5.43;2.15;;;15.30;99.90;;;;;;5136286;27;20035;-72
2022/11/08 13:21:28;;;;;;;4.43;2.15;;;15.30;99.90;;;;;;5136172;27;20082;-71
2022/11/08 13:24:17;;;;;;;4.05;1.85;;;15.30;99.90;;;;;;5136064;27;20491;-71